sensor_id;sensor_type;location;lat;lon;timestamp;P1;durP1;ratioP1;P2;durP2;ratioP2
6661;SDS011;3367;48.714;8.994;2022-09-11T00:02:14;1.97;;;0.50;;
6661;SDS011;3367;48.714;8.994;2022-09-11T00:04:41;0.63;;;0.50;;
6661;SDS011;3367;48.714;8.994;2022-09-11T00:07:08;0.50;;;0.50;;
6661;SDS011;3367;48.714;8.994;2022-09-11T00:09:35;0.70;;;0.60;;
6661;SDS011;3367;48.714;8.994;2022-09-11T00:12:03;0.50;;;0.40;;
6661;SDS011;3367;48.714;8.994;2022-09-11T00:14:31;0.53;;;0.50;;
6661;SDS011;3367;48.714;8.994;2022-09-11T00:16:57;0.50;;;0.40;;
6661;SDS011;3367;48.714;8.994;2022-09-11T00:19:24;0.70;;;0.70;;
6661;SDS011;3367;48.714;8.994;2022-09-11T00:21:52;0.67;;;0.67;;
6661;SDS011;3367;48.714;8.994;2022-09-11T00:24:20;0.53;;;0.50;;
6661;SDS011;3367;48.714;8.994;2022-09-11T00:26:47;0.60;;;0.50;;
6661;SDS011;3367;48.714;8.994;2022-09-11T00:29:15;0.53;;;0.47;;
6661;SDS011;3367;48.714;8.994;2022-09-11T00:31:41;1.03;;;0.47;;
6661;SDS011;3367;48.714;8.994;2022-09-11T00:34:08;0.60;;;0.50;;
6661;SDS011;3367;48.714;8.994;2022-09-11T00:36:35;0.50;;;0.40;;
6661;SDS011;3367;48.714;8.994;2022-09-11T00:39:05;0.70;;;0.50;;
6661;SDS011;3367;48.714;8.994;2022-09-11T00:41:33;0.67;;;0.50;;
6661;SDS011;3367;48.714;8.994;2022-09-11T00:44:02;0.50;;;0.43;;
6661;SDS011;3367;48.714;8.994;2022-09-11T00:46:34;1.80;;;0.40;;
6661;SDS011;3367;48.714;8.994;2022-09-11T00:49:08;1.73;;;0.50;;
6661;SDS011;3367;48.714;8.994;2022-09-11T00:51:40;0.70;;;0.60;;
6661;SDS011;3367;48.714;8.994;2022-09-11T00:54:10;0.50;;;0.40;;
6661;SDS011;3367;48.714;8.994;2022-09-11T00:56:39;0.50;;;0.50;;
6661;SDS011;3367;48.714;8.994;2022-09-11T00:59:08;0.60;;;0.50;;
6661;SDS011;3367;48.714;8.994;2022-09-11T01:01:37;0.60;;;0.53;;
6661;SDS011;3367;48.714;8.994;2022-09-11T01:04:04;0.67;;;0.60;;
6661;SDS011;3367;48.714;8.994;2022-09-11T01:06:32;0.63;;;0.50;;
6661;SDS011;3367;48.714;8.994;2022-09-11T01:08:59;0.70;;;0.50;;
6661;SDS011;3367;48.714;8.994;2022-09-11T01:11:30;0.50;;;0.40;;
6661;SDS011;3367;48.714;8.994;2022-09-11T01:14:08;0.57;;;0.40;;
6661;SDS011;3367;48.714;8.994;2022-09-11T01:16:46;0.50;;;0.50;;
6661;SDS011;3367;48.714;8.994;2022-09-11T01:19:23;1.03;;;0.50;;
6661;SDS011;3367;48.714;8.994;2022-09-11T01:22:13;0.60;;;0.60;;
6661;SDS011;3367;48.714;8.994;2022-09-11T01:24:53;0.63;;;0.50;;
6661;SDS011;3367;48.714;8.994;2022-09-11T01:27:41;0.73;;;0.70;;
6661;SDS011;3367;48.714;8.994;2022-09-11T01:30:11;0.50;;;0.43;;
6661;SDS011;3367;48.714;8.994;2022-09-11T01:32:42;1.47;;;0.80;;
6661;SDS011;3367;48.714;8.994;2022-09-11T01:35:27;0.60;;;0.60;;
6661;SDS011;3367;48.714;8.994;2022-09-11T01:38:08;0.97;;;0.50;;
6661;SDS011;3367;48.714;8.994;2022-09-11T01:40:40;0.60;;;0.60;;
6661;SDS011;3367;48.714;8.994;2022-09-11T01:43:15;0.90;;;0.80;;
6661;SDS011;3367;48.714;8.994;2022-09-11T01:45:46;0.60;;;0.50;;
6661;SDS011;3367;48.714;8.994;2022-09-11T01:48:17;1.03;;;0.60;;
6661;SDS011;3367;48.714;8.994;2022-09-11T01:50:46;0.60;;;0.40;;
6661;SDS011;3367;48.714;8.994;2022-09-11T01:53:16;0.80;;;0.60;;
6661;SDS011;3367;48.714;8.994;2022-09-11T01:55:47;0.70;;;0.50;;
6661;SDS011;3367;48.714;8.994;2022-09-11T01:58:21;0.50;;;0.40;;
6661;SDS011;3367;48.714;8.994;2022-09-11T02:00:52;0.83;;;0.50;;
6661;SDS011;3367;48.714;8.994;2022-09-11T02:03:25;0.90;;;0.50;;
6661;SDS011;3367;48.714;8.994;2022-09-11T02:05:57;1.00;;;0.57;;
6661;SDS011;3367;48.714;8.994;2022-09-11T02:08:29;0.80;;;0.60;;
6661;SDS011;3367;48.714;8.994;2022-09-11T02:11:02;0.60;;;0.60;;
6661;SDS011;3367;48.714;8.994;2022-09-11T02:13:35;0.70;;;0.50;;
6661;SDS011;3367;48.714;8.994;2022-09-11T02:16:11;1.00;;;0.40;;
6661;SDS011;3367;48.714;8.994;2022-09-11T02:18:43;0.67;;;0.67;;
6661;SDS011;3367;48.714;8.994;2022-09-11T02:21:19;0.73;;;0.50;;
6661;SDS011;3367;48.714;8.994;2022-09-11T02:23:46;0.60;;;0.50;;
6661;SDS011;3367;48.714;8.994;2022-09-11T02:26:13;0.50;;;0.43;;
6661;SDS011;3367;48.714;8.994;2022-09-11T02:28:45;0.50;;;0.50;;
6661;SDS011;3367;48.714;8.994;2022-09-11T02:31:12;0.57;;;0.50;;
6661;SDS011;3367;48.714;8.994;2022-09-11T02:33:40;0.70;;;0.70;;
6661;SDS011;3367;48.714;8.994;2022-09-11T02:36:11;2.67;;;0.53;;
6661;SDS011;3367;48.714;8.994;2022-09-11T02:38:52;0.63;;;0.63;;
6661;SDS011;3367;48.714;8.994;2022-09-11T02:41:33;0.60;;;0.50;;
6661;SDS011;3367;48.714;8.994;2022-09-11T02:44:13;0.60;;;0.60;;
6661;SDS011;3367;48.714;8.994;2022-09-11T02:46:53;0.60;;;0.40;;
6661;SDS011;3367;48.714;8.994;2022-09-11T02:49:31;0.60;;;0.60;;
6661;SDS011;3367;48.714;8.994;2022-09-11T02:52:10;1.63;;;0.60;;
6661;SDS011;3367;48.714;8.994;2022-09-11T02:54:47;0.50;;;0.40;;
6661;SDS011;3367;48.714;8.994;2022-09-11T02:57:19;0.63;;;0.60;;
6661;SDS011;3367;48.714;8.994;2022-09-11T02:59:55;0.90;;;0.60;;
6661;SDS011;3367;48.714;8.994;2022-09-11T03:02:24;0.70;;;0.70;;
6661;SDS011;3367;48.714;8.994;2022-09-11T03:04:52;0.70;;;0.60;;
6661;SDS011;3367;48.714;8.994;2022-09-11T03:07:20;0.63;;;0.53;;
6661;SDS011;3367;48.714;8.994;2022-09-11T03:09:47;0.70;;;0.70;;
6661;SDS011;3367;48.714;8.994;2022-09-11T03:12:14;0.70;;;0.53;;
6661;SDS011;3367;48.714;8.994;2022-09-11T03:14:41;1.07;;;1.07;;
6661;SDS011;3367;48.714;8.994;2022-09-11T03:17:09;0.60;;;0.40;;
6661;SDS011;3367;48.714;8.994;2022-09-11T03:19:35;0.70;;;0.70;;
6661;SDS011;3367;48.714;8.994;2022-09-11T03:22:02;0.80;;;0.73;;
6661;SDS011;3367;48.714;8.994;2022-09-11T03:24:29;0.67;;;0.67;;
6661;SDS011;3367;48.714;8.994;2022-09-11T03:26:55;0.90;;;0.60;;
6661;SDS011;3367;48.714;8.994;2022-09-11T03:29:22;0.50;;;0.50;;
6661;SDS011;3367;48.714;8.994;2022-09-11T03:31:49;2.70;;;0.60;;
6661;SDS011;3367;48.714;8.994;2022-09-11T03:34:17;0.60;;;0.50;;
6661;SDS011;3367;48.714;8.994;2022-09-11T03:36:44;0.60;;;0.50;;
6661;SDS011;3367;48.714;8.994;2022-09-11T03:39:12;0.60;;;0.60;;
6661;SDS011;3367;48.714;8.994;2022-09-11T03:41:38;0.50;;;0.50;;
6661;SDS011;3367;48.714;8.994;2022-09-11T03:44:05;0.80;;;0.80;;
6661;SDS011;3367;48.714;8.994;2022-09-11T03:46:31;0.80;;;0.70;;
6661;SDS011;3367;48.714;8.994;2022-09-11T03:48:59;0.87;;;0.80;;
6661;SDS011;3367;48.714;8.994;2022-09-11T03:51:27;1.03;;;0.93;;
6661;SDS011;3367;48.714;8.994;2022-09-11T03:53:55;0.80;;;0.70;;
6661;SDS011;3367;48.714;8.994;2022-09-11T03:56:24;0.60;;;0.50;;
6661;SDS011;3367;48.714;8.994;2022-09-11T03:58:53;1.20;;;0.87;;
6661;SDS011;3367;48.714;8.994;2022-09-11T04:01:21;2.50;;;0.90;;
6661;SDS011;3367;48.714;8.994;2022-09-11T04:03:48;1.90;;;0.70;;
6661;SDS011;3367;48.714;8.994;2022-09-11T04:06:15;0.90;;;0.70;;
6661;SDS011;3367;48.714;8.994;2022-09-11T04:08:43;1.00;;;1.00;;
6661;SDS011;3367;48.714;8.994;2022-09-11T04:11:10;0.87;;;0.87;;
6661;SDS011;3367;48.714;8.994;2022-09-11T04:13:39;0.70;;;0.63;;
6661;SDS011;3367;48.714;8.994;2022-09-11T04:16:09;1.07;;;0.97;;
6661;SDS011;3367;48.714;8.994;2022-09-11T04:18:38;6.63;;;1.27;;
6661;SDS011;3367;48.714;8.994;2022-09-11T04:21:07;1.43;;;1.03;;
6661;SDS011;3367;48.714;8.994;2022-09-11T04:23:34;1.17;;;0.90;;
6661;SDS011;3367;48.714;8.994;2022-09-11T04:26:03;0.70;;;0.70;;
6661;SDS011;3367;48.714;8.994;2022-09-11T04:28:39;1.13;;;0.90;;
6661;SDS011;3367;48.714;8.994;2022-09-11T04:31:06;0.70;;;0.70;;
6661;SDS011;3367;48.714;8.994;2022-09-11T04:33:33;1.53;;;1.10;;
6661;SDS011;3367;48.714;8.994;2022-09-11T04:36:02;1.43;;;0.97;;
6661;SDS011;3367;48.714;8.994;2022-09-11T04:38:30;2.50;;;1.43;;
6661;SDS011;3367;48.714;8.994;2022-09-11T04:40:58;0.80;;;0.77;;
6661;SDS011;3367;48.714;8.994;2022-09-11T04:43:28;2.57;;;2.00;;
6661;SDS011;3367;48.714;8.994;2022-09-11T04:45:59;0.83;;;0.83;;
6661;SDS011;3367;48.714;8.994;2022-09-11T04:48:26;1.20;;;1.00;;
6661;SDS011;3367;48.714;8.994;2022-09-11T04:50:59;1.73;;;1.37;;
6661;SDS011;3367;48.714;8.994;2022-09-11T04:53:27;1.73;;;1.63;;
6661;SDS011;3367;48.714;8.994;2022-09-11T04:56:02;1.20;;;1.00;;
6661;SDS011;3367;48.714;8.994;2022-09-11T04:58:32;0.93;;;0.93;;
6661;SDS011;3367;48.714;8.994;2022-09-11T05:01:00;1.47;;;1.37;;
6661;SDS011;3367;48.714;8.994;2022-09-11T05:03:26;1.43;;;1.27;;
6661;SDS011;3367;48.714;8.994;2022-09-11T05:05:54;0.77;;;0.70;;
6661;SDS011;3367;48.714;8.994;2022-09-11T05:08:22;1.20;;;1.10;;
6661;SDS011;3367;48.714;8.994;2022-09-11T05:10:50;3.73;;;1.60;;
6661;SDS011;3367;48.714;8.994;2022-09-11T05:13:17;1.30;;;1.20;;
6661;SDS011;3367;48.714;8.994;2022-09-11T05:15:46;1.83;;;0.80;;
6661;SDS011;3367;48.714;8.994;2022-09-11T05:18:12;2.07;;;1.90;;
6661;SDS011;3367;48.714;8.994;2022-09-11T05:20:39;1.10;;;1.00;;
6661;SDS011;3367;48.714;8.994;2022-09-11T05:23:05;1.43;;;0.97;;
6661;SDS011;3367;48.714;8.994;2022-09-11T05:25:32;2.53;;;1.10;;
6661;SDS011;3367;48.714;8.994;2022-09-11T05:28:01;1.30;;;1.20;;
6661;SDS011;3367;48.714;8.994;2022-09-11T05:30:28;2.70;;;1.30;;
6661;SDS011;3367;48.714;8.994;2022-09-11T05:32:56;1.00;;;0.90;;
6661;SDS011;3367;48.714;8.994;2022-09-11T05:35:23;1.20;;;1.13;;
6661;SDS011;3367;48.714;8.994;2022-09-11T05:37:50;1.40;;;1.30;;
6661;SDS011;3367;48.714;8.994;2022-09-11T05:40:17;1.20;;;0.80;;
6661;SDS011;3367;48.714;8.994;2022-09-11T05:42:44;1.20;;;1.10;;
6661;SDS011;3367;48.714;8.994;2022-09-11T05:45:11;1.43;;;1.20;;
6661;SDS011;3367;48.714;8.994;2022-09-11T05:47:37;1.53;;;1.03;;
6661;SDS011;3367;48.714;8.994;2022-09-11T05:50:07;1.20;;;1.10;;
6661;SDS011;3367;48.714;8.994;2022-09-11T05:52:41;2.90;;;1.53;;
6661;SDS011;3367;48.714;8.994;2022-09-11T05:55:08;1.40;;;1.27;;
6661;SDS011;3367;48.714;8.994;2022-09-11T05:57:41;0.90;;;0.73;;
6661;SDS011;3367;48.714;8.994;2022-09-11T06:00:08;1.40;;;1.30;;
6661;SDS011;3367;48.714;8.994;2022-09-11T06:02:37;1.27;;;1.17;;
6661;SDS011;3367;48.714;8.994;2022-09-11T06:05:05;1.60;;;1.17;;
6661;SDS011;3367;48.714;8.994;2022-09-11T06:07:33;1.07;;;1.00;;
6661;SDS011;3367;48.714;8.994;2022-09-11T06:09:59;1.60;;;1.50;;
6661;SDS011;3367;48.714;8.994;2022-09-11T06:12:26;1.17;;;1.07;;
6661;SDS011;3367;48.714;8.994;2022-09-11T06:14:53;2.23;;;2.03;;
6661;SDS011;3367;48.714;8.994;2022-09-11T06:17:20;2.23;;;1.77;;
6661;SDS011;3367;48.714;8.994;2022-09-11T06:19:47;1.43;;;1.27;;
6661;SDS011;3367;48.714;8.994;2022-09-11T06:22:15;1.37;;;1.27;;
6661;SDS011;3367;48.714;8.994;2022-09-11T06:24:41;1.27;;;1.13;;
6661;SDS011;3367;48.714;8.994;2022-09-11T06:27:08;3.10;;;1.47;;
6661;SDS011;3367;48.714;8.994;2022-09-11T06:29:35;1.80;;;1.53;;
6661;SDS011;3367;48.714;8.994;2022-09-11T06:32:02;1.30;;;1.20;;
6661;SDS011;3367;48.714;8.994;2022-09-11T06:34:30;4.20;;;1.97;;
6661;SDS011;3367;48.714;8.994;2022-09-11T06:36:57;1.40;;;1.30;;
6661;SDS011;3367;48.714;8.994;2022-09-11T06:39:25;5.03;;;2.40;;
6661;SDS011;3367;48.714;8.994;2022-09-11T06:41:52;2.30;;;1.90;;
6661;SDS011;3367;48.714;8.994;2022-09-11T06:44:20;1.60;;;1.50;;
6661;SDS011;3367;48.714;8.994;2022-09-11T06:46:46;1.77;;;1.67;;
6661;SDS011;3367;48.714;8.994;2022-09-11T06:49:13;1.30;;;1.20;;
6661;SDS011;3367;48.714;8.994;2022-09-11T06:51:40;1.80;;;1.57;;
6661;SDS011;3367;48.714;8.994;2022-09-11T06:54:06;2.03;;;1.67;;
6661;SDS011;3367;48.714;8.994;2022-09-11T06:56:35;1.83;;;1.27;;
6661;SDS011;3367;48.714;8.994;2022-09-11T06:59:01;1.83;;;1.73;;
6661;SDS011;3367;48.714;8.994;2022-09-11T07:01:28;2.53;;;1.87;;
6661;SDS011;3367;48.714;8.994;2022-09-11T07:03:55;2.60;;;2.00;;
6661;SDS011;3367;48.714;8.994;2022-09-11T07:06:22;1.37;;;1.20;;
6661;SDS011;3367;48.714;8.994;2022-09-11T07:08:51;3.00;;;1.60;;
6661;SDS011;3367;48.714;8.994;2022-09-11T07:11:20;1.60;;;1.50;;
6661;SDS011;3367;48.714;8.994;2022-09-11T07:13:48;1.60;;;1.50;;
6661;SDS011;3367;48.714;8.994;2022-09-11T07:16:15;1.93;;;1.37;;
6661;SDS011;3367;48.714;8.994;2022-09-11T07:18:42;2.07;;;1.50;;
6661;SDS011;3367;48.714;8.994;2022-09-11T07:21:11;1.70;;;1.57;;
6661;SDS011;3367;48.714;8.994;2022-09-11T07:23:40;1.80;;;1.70;;
6661;SDS011;3367;48.714;8.994;2022-09-11T07:26:08;1.93;;;1.83;;
6661;SDS011;3367;48.714;8.994;2022-09-11T07:28:36;2.03;;;1.73;;
6661;SDS011;3367;48.714;8.994;2022-09-11T07:31:05;1.57;;;1.47;;
6661;SDS011;3367;48.714;8.994;2022-09-11T07:33:35;1.57;;;1.47;;
6661;SDS011;3367;48.714;8.994;2022-09-11T07:36:05;2.60;;;1.73;;
6661;SDS011;3367;48.714;8.994;2022-09-11T07:38:36;1.80;;;1.70;;
6661;SDS011;3367;48.714;8.994;2022-09-11T07:41:03;2.00;;;1.73;;
6661;SDS011;3367;48.714;8.994;2022-09-11T07:43:31;1.60;;;1.50;;
6661;SDS011;3367;48.714;8.994;2022-09-11T07:45:59;1.33;;;1.23;;
6661;SDS011;3367;48.714;8.994;2022-09-11T07:48:27;1.23;;;1.13;;
6661;SDS011;3367;48.714;8.994;2022-09-11T07:50:55;1.40;;;1.30;;
6661;SDS011;3367;48.714;8.994;2022-09-11T07:53:23;1.30;;;1.20;;
6661;SDS011;3367;48.714;8.994;2022-09-11T07:55:50;1.47;;;1.17;;
6661;SDS011;3367;48.714;8.994;2022-09-11T07:58:16;1.03;;;0.93;;
6661;SDS011;3367;48.714;8.994;2022-09-11T08:00:43;1.43;;;0.93;;
6661;SDS011;3367;48.714;8.994;2022-09-11T08:03:10;1.50;;;1.40;;
6661;SDS011;3367;48.714;8.994;2022-09-11T08:05:38;1.37;;;1.27;;
6661;SDS011;3367;48.714;8.994;2022-09-11T08:08:05;1.63;;;1.53;;
6661;SDS011;3367;48.714;8.994;2022-09-11T08:10:31;1.53;;;1.07;;
6661;SDS011;3367;48.714;8.994;2022-09-11T08:13:05;1.47;;;1.37;;
6661;SDS011;3367;48.714;8.994;2022-09-11T08:15:32;1.50;;;1.40;;
6661;SDS011;3367;48.714;8.994;2022-09-11T08:17:59;2.97;;;1.60;;
6661;SDS011;3367;48.714;8.994;2022-09-11T08:20:26;2.20;;;1.40;;
6661;SDS011;3367;48.714;8.994;2022-09-11T08:22:55;1.40;;;1.30;;
6661;SDS011;3367;48.714;8.994;2022-09-11T08:25:22;1.90;;;1.80;;
6661;SDS011;3367;48.714;8.994;2022-09-11T08:27:49;1.90;;;1.63;;
6661;SDS011;3367;48.714;8.994;2022-09-11T08:30:17;1.43;;;1.30;;
6661;SDS011;3367;48.714;8.994;2022-09-11T08:32:43;1.87;;;1.63;;
6661;SDS011;3367;48.714;8.994;2022-09-11T08:35:10;2.27;;;2.07;;
6661;SDS011;3367;48.714;8.994;2022-09-11T08:37:37;2.37;;;1.77;;
6661;SDS011;3367;48.714;8.994;2022-09-11T08:40:06;1.60;;;1.50;;
6661;SDS011;3367;48.714;8.994;2022-09-11T08:42:35;5.33;;;2.10;;
6661;SDS011;3367;48.714;8.994;2022-09-11T08:45:02;1.83;;;1.73;;
6661;SDS011;3367;48.714;8.994;2022-09-11T08:47:32;1.80;;;1.60;;
6661;SDS011;3367;48.714;8.994;2022-09-11T08:50:02;3.00;;;2.50;;
6661;SDS011;3367;48.714;8.994;2022-09-11T08:52:33;2.30;;;1.27;;
6661;SDS011;3367;48.714;8.994;2022-09-11T08:55:01;2.20;;;1.80;;
6661;SDS011;3367;48.714;8.994;2022-09-11T08:57:33;2.67;;;1.80;;
6661;SDS011;3367;48.714;8.994;2022-09-11T09:00:11;1.50;;;1.40;;
6661;SDS011;3367;48.714;8.994;2022-09-11T09:02:48;1.77;;;1.57;;
6661;SDS011;3367;48.714;8.994;2022-09-11T09:05:29;1.50;;;1.40;;
6661;SDS011;3367;48.714;8.994;2022-09-11T09:08:08;2.33;;;2.10;;
6661;SDS011;3367;48.714;8.994;2022-09-11T09:10:48;5.87;;;1.97;;
6661;SDS011;3367;48.714;8.994;2022-09-11T09:13:28;1.53;;;1.43;;
6661;SDS011;3367;48.714;8.994;2022-09-11T09:16:18;1.80;;;1.70;;
6661;SDS011;3367;48.714;8.994;2022-09-11T09:18:55;1.33;;;1.23;;
6661;SDS011;3367;48.714;8.994;2022-09-11T09:21:28;1.70;;;1.60;;
6661;SDS011;3367;48.714;8.994;2022-09-11T09:24:00;1.87;;;1.73;;
6661;SDS011;3367;48.714;8.994;2022-09-11T09:26:32;2.10;;;1.40;;
6661;SDS011;3367;48.714;8.994;2022-09-11T09:29:06;1.73;;;1.60;;
6661;SDS011;3367;48.714;8.994;2022-09-11T09:31:34;1.90;;;1.50;;
6661;SDS011;3367;48.714;8.994;2022-09-11T09:34:03;1.90;;;1.80;;
6661;SDS011;3367;48.714;8.994;2022-09-11T09:36:35;2.40;;;1.70;;
6661;SDS011;3367;48.714;8.994;2022-09-11T09:39:08;2.40;;;1.73;;
6661;SDS011;3367;48.714;8.994;2022-09-11T09:41:46;1.70;;;1.60;;
6661;SDS011;3367;48.714;8.994;2022-09-11T09:44:42;3.07;;;1.73;;
6661;SDS011;3367;48.714;8.994;2022-09-11T09:47:16;2.17;;;1.97;;
6661;SDS011;3367;48.714;8.994;2022-09-11T09:49:43;1.50;;;1.30;;
6661;SDS011;3367;48.714;8.994;2022-09-11T09:52:14;2.07;;;1.50;;
6661;SDS011;3367;48.714;8.994;2022-09-11T09:54:43;1.80;;;1.70;;
6661;SDS011;3367;48.714;8.994;2022-09-11T09:57:18;1.53;;;1.43;;
6661;SDS011;3367;48.714;8.994;2022-09-11T09:59:50;1.33;;;1.23;;
6661;SDS011;3367;48.714;8.994;2022-09-11T10:02:36;1.40;;;1.30;;
6661;SDS011;3367;48.714;8.994;2022-09-11T10:05:05;2.10;;;1.90;;
6661;SDS011;3367;48.714;8.994;2022-09-11T10:07:45;1.97;;;1.47;;
6661;SDS011;3367;48.714;8.994;2022-09-11T10:10:24;1.63;;;1.53;;
6661;SDS011;3367;48.714;8.994;2022-09-11T10:12:53;1.87;;;1.70;;
6661;SDS011;3367;48.714;8.994;2022-09-11T10:15:22;2.53;;;2.33;;
6661;SDS011;3367;48.714;8.994;2022-09-11T10:17:49;1.73;;;1.63;;
6661;SDS011;3367;48.714;8.994;2022-09-11T10:20:21;1.63;;;1.53;;
6661;SDS011;3367;48.714;8.994;2022-09-11T10:22:52;1.30;;;1.20;;
6661;SDS011;3367;48.714;8.994;2022-09-11T10:25:19;1.20;;;1.13;;
6661;SDS011;3367;48.714;8.994;2022-09-11T10:27:54;2.43;;;2.33;;
6661;SDS011;3367;48.714;8.994;2022-09-11T10:30:29;1.80;;;1.70;;
6661;SDS011;3367;48.714;8.994;2022-09-11T10:32:59;1.23;;;1.13;;
6661;SDS011;3367;48.714;8.994;2022-09-11T10:35:29;2.63;;;1.47;;
6661;SDS011;3367;48.714;8.994;2022-09-11T10:37:58;1.73;;;1.63;;
6661;SDS011;3367;48.714;8.994;2022-09-11T10:40:27;1.50;;;1.40;;
6661;SDS011;3367;48.714;8.994;2022-09-11T10:42:55;1.53;;;1.43;;
6661;SDS011;3367;48.714;8.994;2022-09-11T10:45:22;1.70;;;1.60;;
6661;SDS011;3367;48.714;8.994;2022-09-11T10:47:50;1.20;;;1.10;;
6661;SDS011;3367;48.714;8.994;2022-09-11T10:50:19;1.57;;;1.47;;
6661;SDS011;3367;48.714;8.994;2022-09-11T10:53:01;1.77;;;1.67;;
6661;SDS011;3367;48.714;8.994;2022-09-11T10:55:41;2.33;;;2.13;;
6661;SDS011;3367;48.714;8.994;2022-09-11T10:58:14;2.10;;;2.00;;
6661;SDS011;3367;48.714;8.994;2022-09-11T11:00:43;1.60;;;1.50;;
6661;SDS011;3367;48.714;8.994;2022-09-11T11:03:14;1.70;;;1.40;;
6661;SDS011;3367;48.714;8.994;2022-09-11T11:05:44;1.13;;;1.03;;
6661;SDS011;3367;48.714;8.994;2022-09-11T11:08:24;1.40;;;1.30;;
6661;SDS011;3367;48.714;8.994;2022-09-11T11:11:13;1.70;;;1.50;;
6661;SDS011;3367;48.714;8.994;2022-09-11T11:13:54;1.50;;;1.40;;
6661;SDS011;3367;48.714;8.994;2022-09-11T11:16:30;2.30;;;1.60;;
6661;SDS011;3367;48.714;8.994;2022-09-11T11:19:23;1.40;;;1.30;;
6661;SDS011;3367;48.714;8.994;2022-09-11T11:22:10;1.53;;;1.43;;
6661;SDS011;3367;48.714;8.994;2022-09-11T11:24:51;1.40;;;1.23;;
6661;SDS011;3367;48.714;8.994;2022-09-11T11:27:38;2.50;;;1.90;;
6661;SDS011;3367;48.714;8.994;2022-09-11T11:30:20;1.83;;;1.30;;
6661;SDS011;3367;48.714;8.994;2022-09-11T11:33:02;1.47;;;1.37;;
6661;SDS011;3367;48.714;8.994;2022-09-11T11:35:42;1.40;;;1.30;;
6661;SDS011;3367;48.714;8.994;2022-09-11T11:38:17;1.70;;;0.97;;
6661;SDS011;3367;48.714;8.994;2022-09-11T11:40:48;1.20;;;1.10;;
6661;SDS011;3367;48.714;8.994;2022-09-11T11:43:19;1.40;;;1.30;;
6661;SDS011;3367;48.714;8.994;2022-09-11T11:45:48;1.50;;;1.40;;
6661;SDS011;3367;48.714;8.994;2022-09-11T11:48:21;1.13;;;1.03;;
6661;SDS011;3367;48.714;8.994;2022-09-11T11:50:52;2.50;;;0.90;;
6661;SDS011;3367;48.714;8.994;2022-09-11T11:53:22;1.50;;;1.00;;
6661;SDS011;3367;48.714;8.994;2022-09-11T11:55:54;1.23;;;1.13;;
6661;SDS011;3367;48.714;8.994;2022-09-11T11:58:34;1.43;;;0.90;;
6661;SDS011;3367;48.714;8.994;2022-09-11T12:01:13;1.23;;;1.13;;
6661;SDS011;3367;48.714;8.994;2022-09-11T12:03:47;1.17;;;1.17;;
6661;SDS011;3367;48.714;8.994;2022-09-11T12:06:23;0.90;;;0.80;;
6661;SDS011;3367;48.714;8.994;2022-09-11T12:08:51;1.10;;;1.03;;
6661;SDS011;3367;48.714;8.994;2022-09-11T12:11:21;0.80;;;0.70;;
6661;SDS011;3367;48.714;8.994;2022-09-11T12:13:53;1.20;;;1.10;;
6661;SDS011;3367;48.714;8.994;2022-09-11T12:16:23;1.37;;;1.10;;
6661;SDS011;3367;48.714;8.994;2022-09-11T12:19:00;0.83;;;0.83;;
6661;SDS011;3367;48.714;8.994;2022-09-11T12:21:41;1.20;;;1.10;;
6661;SDS011;3367;48.714;8.994;2022-09-11T12:24:53;1.40;;;1.10;;
6661;SDS011;3367;48.714;8.994;2022-09-11T12:30:21;1.40;;;1.30;;
6661;SDS011;3367;48.714;8.994;2022-09-11T12:32:51;0.90;;;0.70;;
6661;SDS011;3367;48.714;8.994;2022-09-11T12:35:21;1.10;;;1.00;;
6661;SDS011;3367;48.714;8.994;2022-09-11T12:38:01;2.07;;;1.97;;
6661;SDS011;3367;48.714;8.994;2022-09-11T12:40:37;1.00;;;0.90;;
6661;SDS011;3367;48.714;8.994;2022-09-11T12:43:14;1.43;;;1.33;;
6661;SDS011;3367;48.714;8.994;2022-09-11T12:45:52;1.10;;;1.00;;
6661;SDS011;3367;48.714;8.994;2022-09-11T12:48:21;1.47;;;1.37;;
6661;SDS011;3367;48.714;8.994;2022-09-11T12:50:51;1.30;;;1.20;;
6661;SDS011;3367;48.714;8.994;2022-09-11T12:53:22;1.67;;;1.30;;
6661;SDS011;3367;48.714;8.994;2022-09-11T12:55:58;1.53;;;1.43;;
6661;SDS011;3367;48.714;8.994;2022-09-11T12:58:28;1.17;;;1.17;;
6661;SDS011;3367;48.714;8.994;2022-09-11T13:01:00;1.23;;;1.00;;
6661;SDS011;3367;48.714;8.994;2022-09-11T13:03:30;1.70;;;1.40;;
6661;SDS011;3367;48.714;8.994;2022-09-11T13:05:59;1.00;;;1.00;;
6661;SDS011;3367;48.714;8.994;2022-09-11T13:08:32;1.60;;;1.50;;
6661;SDS011;3367;48.714;8.994;2022-09-11T13:17:13;1.37;;;1.13;;
6661;SDS011;3367;48.714;8.994;2022-09-11T13:19:42;1.60;;;1.50;;
6661;SDS011;3367;48.714;8.994;2022-09-11T13:22:20;1.50;;;1.40;;
6661;SDS011;3367;48.714;8.994;2022-09-11T13:24:50;1.33;;;1.23;;
6661;SDS011;3367;48.714;8.994;2022-09-11T13:27:28;2.83;;;1.17;;
6661;SDS011;3367;48.714;8.994;2022-09-11T13:29:56;1.20;;;1.10;;
6661;SDS011;3367;48.714;8.994;2022-09-11T13:32:24;1.40;;;1.30;;
6661;SDS011;3367;48.714;8.994;2022-09-11T13:34:51;1.47;;;1.23;;
6661;SDS011;3367;48.714;8.994;2022-09-11T13:37:28;1.57;;;1.47;;
6661;SDS011;3367;48.714;8.994;2022-09-11T13:40:02;1.53;;;1.23;;
6661;SDS011;3367;48.714;8.994;2022-09-11T13:42:32;1.60;;;1.40;;
6661;SDS011;3367;48.714;8.994;2022-09-11T13:45:00;1.30;;;1.20;;
6661;SDS011;3367;48.714;8.994;2022-09-11T13:47:29;2.50;;;1.07;;
6661;SDS011;3367;48.714;8.994;2022-09-11T13:49:57;2.23;;;2.03;;
6661;SDS011;3367;48.714;8.994;2022-09-11T13:52:29;1.30;;;1.20;;
6661;SDS011;3367;48.714;8.994;2022-09-11T13:54:58;1.50;;;1.40;;
6661;SDS011;3367;48.714;8.994;2022-09-11T13:57:35;1.70;;;1.60;;
6661;SDS011;3367;48.714;8.994;2022-09-11T14:03:02;1.90;;;1.50;;
6661;SDS011;3367;48.714;8.994;2022-09-11T14:05:31;1.30;;;1.20;;
6661;SDS011;3367;48.714;8.994;2022-09-11T14:08:01;2.93;;;1.40;;
6661;SDS011;3367;48.714;8.994;2022-09-11T14:10:34;1.63;;;1.53;;
6661;SDS011;3367;48.714;8.994;2022-09-11T14:13:11;1.20;;;1.10;;
6661;SDS011;3367;48.714;8.994;2022-09-11T14:15:43;1.03;;;0.93;;
6661;SDS011;3367;48.714;8.994;2022-09-11T14:18:20;3.27;;;2.30;;
6661;SDS011;3367;48.714;8.994;2022-09-11T14:20:54;1.13;;;1.03;;
6661;SDS011;3367;48.714;8.994;2022-09-11T14:23:24;1.43;;;1.30;;
6661;SDS011;3367;48.714;8.994;2022-09-11T14:26:04;1.00;;;0.93;;
6661;SDS011;3367;48.714;8.994;2022-09-11T14:28:45;1.30;;;1.20;;
6661;SDS011;3367;48.714;8.994;2022-09-11T14:31:32;2.00;;;1.90;;
6661;SDS011;3367;48.714;8.994;2022-09-11T14:34:02;1.40;;;1.30;;
6661;SDS011;3367;48.714;8.994;2022-09-11T14:36:42;1.90;;;1.80;;
6661;SDS011;3367;48.714;8.994;2022-09-11T14:39:13;1.53;;;1.43;;
6661;SDS011;3367;48.714;8.994;2022-09-11T14:52:02;1.33;;;1.10;;
6661;SDS011;3367;48.714;8.994;2022-09-11T14:54:31;1.50;;;1.17;;
6661;SDS011;3367;48.714;8.994;2022-09-11T14:56:58;1.43;;;1.20;;
6661;SDS011;3367;48.714;8.994;2022-09-11T14:59:27;1.37;;;1.27;;
6661;SDS011;3367;48.714;8.994;2022-09-11T15:01:54;4.33;;;1.73;;
6661;SDS011;3367;48.714;8.994;2022-09-11T15:04:22;1.50;;;1.40;;
6661;SDS011;3367;48.714;8.994;2022-09-11T15:06:50;2.00;;;1.90;;
6661;SDS011;3367;48.714;8.994;2022-09-11T15:09:19;1.33;;;1.13;;
6661;SDS011;3367;48.714;8.994;2022-09-11T15:11:46;1.47;;;1.37;;
6661;SDS011;3367;48.714;8.994;2022-09-11T15:14:15;1.40;;;1.30;;
6661;SDS011;3367;48.714;8.994;2022-09-11T15:16:42;1.70;;;1.60;;
6661;SDS011;3367;48.714;8.994;2022-09-11T15:19:09;1.63;;;1.43;;
6661;SDS011;3367;48.714;8.994;2022-09-11T15:21:36;1.30;;;1.20;;
6661;SDS011;3367;48.714;8.994;2022-09-11T15:24:04;1.93;;;1.83;;
6661;SDS011;3367;48.714;8.994;2022-09-11T15:26:32;1.30;;;1.20;;
6661;SDS011;3367;48.714;8.994;2022-09-11T15:29:01;1.07;;;0.83;;
6661;SDS011;3367;48.714;8.994;2022-09-11T15:31:29;1.40;;;1.30;;
6661;SDS011;3367;48.714;8.994;2022-09-11T15:33:57;1.83;;;1.37;;
6661;SDS011;3367;48.714;8.994;2022-09-11T15:36:26;1.57;;;1.47;;
6661;SDS011;3367;48.714;8.994;2022-09-11T15:38:53;1.70;;;1.60;;
6661;SDS011;3367;48.714;8.994;2022-09-11T15:41:21;2.07;;;1.90;;
6661;SDS011;3367;48.714;8.994;2022-09-11T15:43:50;1.10;;;1.00;;
6661;SDS011;3367;48.714;8.994;2022-09-11T15:46:18;1.40;;;1.30;;
6661;SDS011;3367;48.714;8.994;2022-09-11T15:48:46;1.17;;;1.07;;
6661;SDS011;3367;48.714;8.994;2022-09-11T15:51:15;1.37;;;1.00;;
6661;SDS011;3367;48.714;8.994;2022-09-11T15:53:43;1.60;;;1.50;;
6661;SDS011;3367;48.714;8.994;2022-09-11T15:56:11;1.60;;;1.50;;
6661;SDS011;3367;48.714;8.994;2022-09-11T15:58:40;1.10;;;1.00;;
6661;SDS011;3367;48.714;8.994;2022-09-11T16:01:15;2.60;;;2.40;;